sensor_id;sensor_type;location;lat;lon;timestamp;temperature;humidity
35027;DHT22;60696;51.426;6.934;2023-05-08T04:03:17;14.40;99.90
35027;DHT22;60696;51.426;6.934;2023-05-08T04:05:50;14.40;99.90
35027;DHT22;60696;51.426;6.934;2023-05-08T04:08:26;14.50;99.90
35027;DHT22;60696;51.426;6.934;2023-05-08T04:11:14;14.40;99.90
35027;DHT22;60696;51.426;6.934;2023-05-08T04:13:49;14.50;99.90
35027;DHT22;60696;51.426;6.934;2023-05-08T04:16:23;14.50;99.90
35027;DHT22;60696;51.426;6.934;2023-05-08T04:18:57;14.60;99.90
35027;DHT22;60696;51.426;6.934;2023-05-08T04:21:26;14.60;99.90
35027;DHT22;60696;51.426;6.934;2023-05-08T04:23:55;14.60;99.90
35027;DHT22;60696;51.426;6.934;2023-05-08T04:26:22;14.70;99.90
35027;DHT22;60696;51.426;6.934;2023-05-08T04:28:47;14.80;99.90
35027;DHT22;60696;51.426;6.934;2023-05-08T04:31:15;14.80;99.90
35027;DHT22;60696;51.426;6.934;2023-05-08T04:33:45;14.80;99.90
35027;DHT22;60696;51.426;6.934;2023-05-08T04:36:12;14.80;99.90
35027;DHT22;60696;51.426;6.934;2023-05-08T04:38:39;14.80;99.90
35027;DHT22;60696;51.426;6.934;2023-05-08T04:41:05;14.80;99.90
35027;DHT22;60696;51.426;6.934;2023-05-08T04:43:30;14.70;99.90
35027;DHT22;60696;51.426;6.934;2023-05-08T04:45:56;14.70;99.90
35027;DHT22;60696;51.426;6.934;2023-05-08T04:48:22;14.80;99.90
35027;DHT22;60696;51.426;6.934;2023-05-08T04:50:47;14.80;99.90
35027;DHT22;60696;51.426;6.934;2023-05-08T04:53:13;14.90;99.90
35027;DHT22;60696;51.426;6.934;2023-05-08T04:55:38;15.10;99.90
35027;DHT22;60696;51.426;6.934;2023-05-08T04:58:04;15.00;99.90
35027;DHT22;60696;51.426;6.934;2023-05-08T05:00:30;15.10;99.90
35027;DHT22;60696;51.426;6.934;2023-05-08T05:02:55;15.20;99.90
35027;DHT22;60696;51.426;6.934;2023-05-08T05:05:21;15.10;99.90
35027;DHT22;60696;51.426;6.934;2023-05-08T05:07:46;15.20;99.90
35027;DHT22;60696;51.426;6.934;2023-05-08T05:10:12;15.20;99.90
35027;DHT22;60696;51.426;6.934;2023-05-08T05:12:37;15.20;99.90
35027;DHT22;60696;51.426;6.934;2023-05-08T05:15:03;15.30;99.90
35027;DHT22;60696;51.426;6.934;2023-05-08T05:17:30;15.40;99.90
35027;DHT22;60696;51.426;6.934;2023-05-08T05:19:55;15.20;99.90
35027;DHT22;60696;51.426;6.934;2023-05-08T05:22:22;15.40;99.90
35027;DHT22;60696;51.426;6.934;2023-05-08T05:24:47;15.30;99.90
35027;DHT22;60696;51.426;6.934;2023-05-08T05:27:13;15.30;99.90
35027;DHT22;60696;51.426;6.934;2023-05-08T05:29:38;15.30;99.90
35027;DHT22;60696;51.426;6.934;2023-05-08T05:32:04;15.40;99.90
35027;DHT22;60696;51.426;6.934;2023-05-08T05:34:31;15.50;99.90
35027;DHT22;60696;51.426;6.934;2023-05-08T05:36:57;15.50;99.90
35027;DHT22;60696;51.426;6.934;2023-05-08T05:39:23;15.60;99.90
35027;DHT22;60696;51.426;6.934;2023-05-08T05:41:48;15.60;99.90
35027;DHT22;60696;51.426;6.934;2023-05-08T05:44:14;15.60;99.90
35027;DHT22;60696;51.426;6.934;2023-05-08T05:46:39;15.70;99.90
35027;DHT22;60696;51.426;6.934;2023-05-08T05:49:05;15.90;99.90
35027;DHT22;60696;51.426;6.934;2023-05-08T05:51:31;15.90;99.90
35027;DHT22;60696;51.426;6.934;2023-05-08T05:53:57;16.00;99.90
35027;DHT22;60696;51.426;6.934;2023-05-08T05:56:22;15.90;99.90
35027;DHT22;60696;51.426;6.934;2023-05-08T05:58:48;16.10;99.90
35027;DHT22;60696;51.426;6.934;2023-05-08T06:01:14;16.10;99.90
35027;DHT22;60696;51.426;6.934;2023-05-08T06:03:39;16.10;99.90
35027;DHT22;60696;51.426;6.934;2023-05-08T06:06:05;16.10;99.90
35027;DHT22;60696;51.426;6.934;2023-05-08T06:08:31;16.00;99.90
35027;DHT22;60696;51.426;6.934;2023-05-08T06:10:56;15.90;99.90
35027;DHT22;60696;51.426;6.934;2023-05-08T06:13:23;16.00;99.90
35027;DHT22;60696;51.426;6.934;2023-05-08T06:15:48;15.90;99.90
35027;DHT22;60696;51.426;6.934;2023-05-08T06:18:15;15.80;99.90
35027;DHT22;60696;51.426;6.934;2023-05-08T06:20:41;15.80;99.90
35027;DHT22;60696;51.426;6.934;2023-05-08T06:23:06;15.70;99.90
35027;DHT22;60696;51.426;6.934;2023-05-08T06:25:32;15.70;99.90
35027;DHT22;60696;51.426;6.934;2023-05-08T06:27:58;15.70;99.90
35027;DHT22;60696;51.426;6.934;2023-05-08T06:30:23;15.70;99.90
35027;DHT22;60696;51.426;6.934;2023-05-08T06:32:49;15.80;99.90
35027;DHT22;60696;51.426;6.934;2023-05-08T06:35:15;16.00;99.90
35027;DHT22;60696;51.426;6.934;2023-05-08T06:37:47;16.20;99.90
35027;DHT22;60696;51.426;6.934;2023-05-08T06:40:13;16.50;99.90
35027;DHT22;60696;51.426;6.934;2023-05-08T06:42:39;16.70;99.90
35027;DHT22;60696;51.426;6.934;2023-05-08T06:45:06;16.90;99.90
35027;DHT22;60696;51.426;6.934;2023-05-08T06:47:31;17.30;99.90
35027;DHT22;60696;51.426;6.934;2023-05-08T06:49:57;18.00;99.90
35027;DHT22;60696;51.426;6.934;2023-05-08T06:52:22;18.60;99.90
35027;DHT22;60696;51.426;6.934;2023-05-08T06:54:50;19.20;99.90
35027;DHT22;60696;51.426;6.934;2023-05-08T06:57:15;18.90;99.90
35027;DHT22;60696;51.426;6.934;2023-05-08T06:59:41;18.60;99.90
35027;DHT22;60696;51.426;6.934;2023-05-08T07:02:07;18.80;99.90
35027;DHT22;60696;51.426;6.934;2023-05-08T07:04:34;19.50;99.90
35027;DHT22;60696;51.426;6.934;2023-05-08T07:07:00;19.80;99.90
35027;DHT22;60696;51.426;6.934;2023-05-08T07:09:26;20.40;99.90
35027;DHT22;60696;51.426;6.934;2023-05-08T07:11:52;21.00;99.90
35027;DHT22;60696;51.426;6.934;2023-05-08T07:14:17;21.80;99.90
35027;DHT22;60696;51.426;6.934;2023-05-08T07:16:43;22.50;99.90
35027;DHT22;60696;51.426;6.934;2023-05-08T07:19:08;23.80;99.90
35027;DHT22;60696;51.426;6.934;2023-05-08T07:21:34;24.80;99.90
35027;DHT22;60696;51.426;6.934;2023-05-08T07:24:00;25.80;97.90
35027;DHT22;60696;51.426;6.934;2023-05-08T07:26:25;26.50;95.20
35027;DHT22;60696;51.426;6.934;2023-05-08T07:28:51;27.50;87.70
35027;DHT22;60696;51.426;6.934;2023-05-08T07:31:18;27.80;86.80
35027;DHT22;60696;51.426;6.934;2023-05-08T07:33:44;27.10;85.90
35027;DHT22;60696;51.426;6.934;2023-05-08T07:36:11;26.30;92.10
35027;DHT22;60696;51.426;6.934;2023-05-08T07:38:37;25.20;96.30
35027;DHT22;60696;51.426;6.934;2023-05-08T07:41:02;24.50;97.50
35027;DHT22;60696;51.426;6.934;2023-05-08T07:43:30;24.10;97.90
35027;DHT22;60696;51.426;6.934;2023-05-08T07:45:56;22.90;99.90
35027;DHT22;60696;51.426;6.934;2023-05-08T07:48:21;22.10;99.90
35027;DHT22;60696;51.426;6.934;2023-05-08T07:50:48;21.50;99.90
35027;DHT22;60696;51.426;6.934;2023-05-08T07:53:14;21.40;99.90
35027;DHT22;60696;51.426;6.934;2023-05-08T07:55:40;21.60;99.90
35027;DHT22;60696;51.426;6.934;2023-05-08T07:58:06;21.80;99.90
35027;DHT22;60696;51.426;6.934;2023-05-08T08:00:32;21.40;99.90
35027;DHT22;60696;51.426;6.934;2023-05-08T08:02:57;21.70;99.90
35027;DHT22;60696;51.426;6.934;2023-05-08T08:05:23;21.70;99.90
35027;DHT22;60696;51.426;6.934;2023-05-08T08:07:49;21.30;99.90
35027;DHT22;60696;51.426;6.934;2023-05-08T08:10:14;21.10;99.90
35027;DHT22;60696;51.426;6.934;2023-05-08T08:12:40;21.30;99.90
35027;DHT22;60696;51.426;6.934;2023-05-08T08:15:06;21.30;99.90
35027;DHT22;60696;51.426;6.934;2023-05-08T08:17:31;21.40;99.90
35027;DHT22;60696;51.426;6.934;2023-05-08T08:19:57;21.10;99.90
35027;DHT22;60696;51.426;6.934;2023-05-08T08:22:24;21.30;99.90
35027;DHT22;60696;51.426;6.934;2023-05-08T08:24:50;21.30;99.90
35027;DHT22;60696;51.426;6.934;2023-05-08T08:27:16;21.30;99.90
35027;DHT22;60696;51.426;6.934;2023-05-08T08:29:41;21.20;99.90
35027;DHT22;60696;51.426;6.934;2023-05-08T08:32:07;21.10;99.90
35027;DHT22;60696;51.426;6.934;2023-05-08T08:34:33;21.00;99.90
35027;DHT22;60696;51.426;6.934;2023-05-08T08:36:59;20.90;99.90
35027;DHT22;60696;51.426;6.934;2023-05-08T08:39:24;21.30;99.90
35027;DHT22;60696;51.426;6.934;2023-05-08T08:41:50;21.50;99.90
35027;DHT22;60696;51.426;6.934;2023-05-08T08:44:15;21.60;99.90
35027;DHT22;60696;51.426;6.934;2023-05-08T08:46:44;21.50;99.90
35027;DHT22;60696;51.426;6.934;2023-05-08T08:49:23;21.60;99.90
35027;DHT22;60696;51.426;6.934;2023-05-08T08:51:56;21.90;99.90
35027;DHT22;60696;51.426;6.934;2023-05-08T08:54:23;21.30;99.90
35027;DHT22;60696;51.426;6.934;2023-05-08T08:56:53;20.50;99.90
35027;DHT22;60696;51.426;6.934;2023-05-08T08:59:21;20.30;99.90
35027;DHT22;60696;51.426;6.934;2023-05-08T09:01:52;20.30;99.90
35027;DHT22;60696;51.426;6.934;2023-05-08T09:04:19;20.10;99.90
35027;DHT22;60696;51.426;6.934;2023-05-08T09:06:45;20.20;99.90
35027;DHT22;60696;51.426;6.934;2023-05-08T09:09:11;20.20;99.90
35027;DHT22;60696;51.426;6.934;2023-05-08T09:11:39;20.20;99.90
35027;DHT22;60696;51.426;6.934;2023-05-08T09:14:05;20.10;99.90
35027;DHT22;60696;51.426;6.934;2023-05-08T09:16:30;19.80;99.90
35027;DHT22;60696;51.426;6.934;2023-05-08T09:18:56;19.90;99.90
35027;DHT22;60696;51.426;6.934;2023-05-08T09:21:22;19.60;99.90
35027;DHT22;60696;51.426;6.934;2023-05-08T09:23:58;19.90;99.90
35027;DHT22;60696;51.426;6.934;2023-05-08T09:26:38;20.10;99.90
35027;DHT22;60696;51.426;6.934;2023-05-08T09:29:15;19.80;99.90
35027;DHT22;60696;51.426;6.934;2023-05-08T09:31:51;19.80;99.90
35027;DHT22;60696;51.426;6.934;2023-05-08T09:34:32;20.00;99.90
35027;DHT22;60696;51.426;6.934;2023-05-08T09:39:30;20.00;99.90
35027;DHT22;60696;51.426;6.934;2023-05-08T09:42:00;19.80;99.90
35027;DHT22;60696;51.426;6.934;2023-05-08T09:44:28;19.80;99.90
35027;DHT22;60696;51.426;6.934;2023-05-08T09:47:14;19.80;99.90
35027;DHT22;60696;51.426;6.934;2023-05-08T09:50:02;19.80;99.90
35027;DHT22;60696;51.426;6.934;2023-05-08T09:52:29;19.50;99.90
35027;DHT22;60696;51.426;6.934;2023-05-08T09:55:02;19.40;99.90
35027;DHT22;60696;51.426;6.934;2023-05-08T09:57:31;19.50;99.90
35027;DHT22;60696;51.426;6.934;2023-05-08T10:00:10;19.20;99.90
35027;DHT22;60696;51.426;6.934;2023-05-08T10:02:41;19.20;99.90
35027;DHT22;60696;51.426;6.934;2023-05-08T10:05:27;19.30;99.90
35027;DHT22;60696;51.426;6.934;2023-05-08T10:07:55;18.90;99.90
35027;DHT22;60696;51.426;6.934;2023-05-08T10:10:25;18.70;99.90
35027;DHT22;60696;51.426;6.934;2023-05-08T10:12:52;18.60;99.90
35027;DHT22;60696;51.426;6.934;2023-05-08T10:15:29;18.50;99.90
35027;DHT22;60696;51.426;6.934;2023-05-08T10:18:06;18.40;99.90
35027;DHT22;60696;51.426;6.934;2023-05-08T10:20:33;18.70;99.90
35027;DHT22;60696;51.426;6.934;2023-05-08T10:23:00;18.70;99.90
35027;DHT22;60696;51.426;6.934;2023-05-08T10:25:31;18.90;99.90
35027;DHT22;60696;51.426;6.934;2023-05-08T10:28:15;18.80;99.90
35027;DHT22;60696;51.426;6.934;2023-05-08T10:30:47;18.90;99.90
35027;DHT22;60696;51.426;6.934;2023-05-08T10:33:14;19.20;99.90
35027;DHT22;60696;51.426;6.934;2023-05-08T10:35:44;19.10;99.90
35027;DHT22;60696;51.426;6.934;2023-05-08T10:38:10;19.10;99.90
35027;DHT22;60696;51.426;6.934;2023-05-08T10:40:37;19.00;99.90
35027;DHT22;60696;51.426;6.934;2023-05-08T10:43:02;19.20;99.90
35027;DHT22;60696;51.426;6.934;2023-05-08T10:45:30;19.40;99.90
35027;DHT22;60696;51.426;6.934;2023-05-08T10:50:46;19.70;99.90
35027;DHT22;60696;51.426;6.934;2023-05-08T10:53:19;19.70;99.90
35027;DHT22;60696;51.426;6.934;2023-05-08T10:55:49;19.60;99.90
35027;DHT22;60696;51.426;6.934;2023-05-08T10:58:36;19.50;99.90
35027;DHT22;60696;51.426;6.934;2023-05-08T11:03:39;19.60;99.90
35027;DHT22;60696;51.426;6.934;2023-05-08T11:06:06;19.80;99.90
35027;DHT22;60696;51.426;6.934;2023-05-08T11:08:32;19.70;99.90
35027;DHT22;60696;51.426;6.934;2023-05-08T11:11:35;19.90;99.90
35027;DHT22;60696;51.426;6.934;2023-05-08T11:19:19;20.30;99.90
35027;DHT22;60696;51.426;6.934;2023-05-08T11:22:20;20.50;99.90
35027;DHT22;60696;51.426;6.934;2023-05-08T11:24:57;20.60;99.90
35027;DHT22;60696;51.426;6.934;2023-05-08T11:32:57;21.30;99.90
35027;DHT22;60696;51.426;6.934;2023-05-08T11:38:19;21.50;99.90
35027;DHT22;60696;51.426;6.934;2023-05-08T11:46:14;21.60;99.90
35027;DHT22;60696;51.426;6.934;2023-05-08T11:48:41;21.50;99.90
35027;DHT22;60696;51.426;6.934;2023-05-08T11:51:06;21.70;99.90
35027;DHT22;60696;51.426;6.934;2023-05-08T11:53:32;22.20;99.90
35027;DHT22;60696;51.426;6.934;2023-05-08T11:55:59;22.40;99.90
35027;DHT22;60696;51.426;6.934;2023-05-08T11:58:25;22.20;99.90
35027;DHT22;60696;51.426;6.934;2023-05-08T12:00:51;22.40;99.90
35027;DHT22;60696;51.426;6.934;2023-05-08T12:03:20;21.70;99.90
35027;DHT22;60696;51.426;6.934;2023-05-08T12:05:47;22.10;99.90
35027;DHT22;60696;51.426;6.934;2023-05-08T12:08:14;22.40;99.90
35027;DHT22;60696;51.426;6.934;2023-05-08T12:13:20;22.70;99.90
35027;DHT22;60696;51.426;6.934;2023-05-08T12:15:46;22.40;99.90
35027;DHT22;60696;51.426;6.934;2023-05-08T12:18:13;22.30;99.90
35027;DHT22;60696;51.426;6.934;2023-05-08T12:20:39;22.40;99.90
35027;DHT22;60696;51.426;6.934;2023-05-08T12:23:05;22.20;99.90
35027;DHT22;60696;51.426;6.934;2023-05-08T12:25:30;22.70;99.90
35027;DHT22;60696;51.426;6.934;2023-05-08T12:27:57;22.50;99.90
35027;DHT22;60696;51.426;6.934;2023-05-08T12:30:24;22.70;99.90
35027;DHT22;60696;51.426;6.934;2023-05-08T12:32:50;22.40;99.90
35027;DHT22;60696;51.426;6.934;2023-05-08T12:35:17;22.40;99.90
35027;DHT22;60696;51.426;6.934;2023-05-08T12:37:44;22.80;99.90
35027;DHT22;60696;51.426;6.934;2023-05-08T12:40:26;23.20;99.90
35027;DHT22;60696;51.426;6.934;2023-05-08T12:42:52;23.50;99.90
35027;DHT22;60696;51.426;6.934;2023-05-08T12:45:23;23.70;99.90
35027;DHT22;60696;51.426;6.934;2023-05-08T12:47:50;23.20;99.90
35027;DHT22;60696;51.426;6.934;2023-05-08T12:50:17;23.10;99.90
35027;DHT22;60696;51.426;6.934;2023-05-08T12:52:45;23.40;99.90
35027;DHT22;60696;51.426;6.934;2023-05-08T12:58:04;23.40;99.90
35027;DHT22;60696;51.426;6.934;2023-05-08T13:00:44;23.50;99.90
35027;DHT22;60696;51.426;6.934;2023-05-08T13:03:12;23.00;99.90
35027;DHT22;60696;51.426;6.934;2023-05-08T13:05:43;22.90;99.90
35027;DHT22;60696;51.426;6.934;2023-05-08T13:08:09;22.70;99.90
35027;DHT22;60696;51.426;6.934;2023-05-08T13:10:46;22.90;99.90
35027;DHT22;60696;51.426;6.934;2023-05-08T13:13:13;22.80;99.90
35027;DHT22;60696;51.426;6.934;2023-05-08T13:15:39;22.70;99.90
35027;DHT22;60696;51.426;6.934;2023-05-08T13:18:05;22.50;99.90
35027;DHT22;60696;51.426;6.934;2023-05-08T13:20:32;22.50;99.90
35027;DHT22;60696;51.426;6.934;2023-05-08T13:22:58;22.10;99.90
35027;DHT22;60696;51.426;6.934;2023-05-08T13:25:24;21.80;99.90
35027;DHT22;60696;51.426;6.934;2023-05-08T13:27:49;22.10;99.90
35027;DHT22;60696;51.426;6.934;2023-05-08T13:30:15;21.90;99.90
35027;DHT22;60696;51.426;6.934;2023-05-08T13:32:41;21.80;99.90
35027;DHT22;60696;51.426;6.934;2023-05-08T13:35:07;22.30;99.90
35027;DHT22;60696;51.426;6.934;2023-05-08T13:37:33;22.60;99.90
35027;DHT22;60696;51.426;6.934;2023-05-08T13:39:58;22.70;99.90
35027;DHT22;60696;51.426;6.934;2023-05-08T13:42:24;22.70;99.90
35027;DHT22;60696;51.426;6.934;2023-05-08T13:44:49;22.80;99.90
35027;DHT22;60696;51.426;6.934;2023-05-08T13:47:16;22.70;99.90
35027;DHT22;60696;51.426;6.934;2023-05-08T13:49:41;22.50;99.90
35027;DHT22;60696;51.426;6.934;2023-05-08T13:52:09;22.10;99.90
35027;DHT22;60696;51.426;6.934;2023-05-08T13:54:34;22.10;99.90
35027;DHT22;60696;51.426;6.934;2023-05-08T13:57:00;22.40;99.90
35027;DHT22;60696;51.426;6.934;2023-05-08T13:59:27;22.40;99.90
35027;DHT22;60696;51.426;6.934;2023-05-08T14:01:53;22.50;99.90
35027;DHT22;60696;51.426;6.934;2023-05-08T14:04:18;22.20;99.90
35027;DHT22;60696;51.426;6.934;2023-05-08T14:06:44;22.20;99.90
35027;DHT22;60696;51.426;6.934;2023-05-08T14:09:10;21.80;99.90
35027;DHT22;60696;51.426;6.934;2023-05-08T14:11:36;21.80;99.90
35027;DHT22;60696;51.426;6.934;2023-05-08T14:14:02;21.80;99.90
35027;DHT22;60696;51.426;6.934;2023-05-08T14:16:27;21.80;99.90
35027;DHT22;60696;51.426;6.934;2023-05-08T14:18:53;21.70;99.90
35027;DHT22;60696;51.426;6.934;2023-05-08T14:21:19;21.60;99.90
35027;DHT22;60696;51.426;6.934;2023-05-08T14:23:44;21.90;99.90
35027;DHT22;60696;51.426;6.934;2023-05-08T14:26:10;21.80;99.90
35027;DHT22;60696;51.426;6.934;2023-05-08T14:28:35;21.70;99.90
35027;DHT22;60696;51.426;6.934;2023-05-08T14:31:01;21.80;99.90
35027;DHT22;60696;51.426;6.934;2023-05-08T14:33:27;22.00;99.90
35027;DHT22;60696;51.426;6.934;2023-05-08T14:35:52;22.10;99.90
35027;DHT22;60696;51.426;6.934;2023-05-08T14:38:18;21.90;99.90
35027;DHT22;60696;51.426;6.934;2023-05-08T14:40:43;22.00;99.90
35027;DHT22;60696;51.426;6.934;2023-05-08T14:43:09;22.20;99.90
35027;DHT22;60696;51.426;6.934;2023-05-08T14:45:35;21.70;99.90
35027;DHT22;60696;51.426;6.934;2023-05-08T14:48:00;21.80;99.90
35027;DHT22;60696;51.426;6.934;2023-05-08T14:50:26;22.10;99.90
35027;DHT22;60696;51.426;6.934;2023-05-08T14:52:52;22.20;99.90
35027;DHT22;60696;51.426;6.934;2023-05-08T14:55:18;22.30;99.90
35027;DHT22;60696;51.426;6.934;2023-05-08T14:57:51;22.40;99.90
35027;DHT22;60696;51.426;6.934;2023-05-08T15:00:17;22.60;99.90
35027;DHT22;60696;51.426;6.934;2023-05-08T15:02:43;22.80;99.90
35027;DHT22;60696;51.426;6.934;2023-05-08T15:05:09;22.90;99.90
35027;DHT22;60696;51.426;6.934;2023-05-08T15:07:35;22.90;99.90
35027;DHT22;60696;51.426;6.934;2023-05-08T15:10:01;22.60;99.90
35027;DHT22;60696;51.426;6.934;2023-05-08T15:12:27;22.10;99.90
35027;DHT22;60696;51.426;6.934;2023-05-08T15:14:53;22.00;99.90
35027;DHT22;60696;51.426;6.934;2023-05-08T15:17:19;21.90;99.90
35027;DHT22;60696;51.426;6.934;2023-05-08T15:19:45;21.60;99.90
35027;DHT22;60696;51.426;6.934;2023-05-08T15:22:11;21.50;99.90
35027;DHT22;60696;51.426;6.934;2023-05-08T15:24:37;21.30;99.90
35027;DHT22;60696;51.426;6.934;2023-05-08T15:27:02;21.10;99.90
35027;DHT22;60696;51.426;6.934;2023-05-08T15:29:28;20.90;99.90
35027;DHT22;60696;51.426;6.934;2023-05-08T15:31:54;20.90;99.90
35027;DHT22;60696;51.426;6.934;2023-05-08T15:34:19;20.80;99.90
35027;DHT22;60696;51.426;6.934;2023-05-08T15:36:46;20.60;99.90
35027;DHT22;60696;51.426;6.934;2023-05-08T15:39:11;20.60;99.90
35027;DHT22;60696;51.426;6.934;2023-05-08T15:41:37;20.60;99.90
35027;DHT22;60696;51.426;6.934;2023-05-08T15:44:04;20.60;99.90
35027;DHT22;60696;51.426;6.934;2023-05-08T15:46:30;20.40;99.90
35027;DHT22;60696;51.426;6.934;2023-05-08T15:48:56;20.30;99.90
35027;DHT22;60696;51.426;6.934;2023-05-08T15:51:21;20.30;99.90
35027;DHT22;60696;51.426;6.934;2023-05-08T15:53:47;20.40;99.90
35027;DHT22;60696;51.426;6.934;2023-05-08T15:56:13;20.30;99.90
35027;DHT22;60696;51.426;6.934;2023-05-08T15:58:38;20.30;99.90
35027;DHT22;60696;51.426;6.934;2023-05-08T16:01:05;20.10;99.90
35027;DHT22;60696;51.426;6.934;2023-05-08T16:03:32;20.00;99.90
35027;DHT22;60696;51.426;6.934;2023-05-08T16:05:57;20.00;99.90
35027;DHT22;60696;51.426;6.934;2023-05-08T16:08:23;19.90;99.90
35027;DHT22;60696;51.426;6.934;2023-05-08T16:10:49;19.60;99.90
35027;DHT22;60696;51.426;6.934;2023-05-08T16:13:14;19.50;99.90
35027;DHT22;60696;51.426;6.934;2023-05-08T16:15:41;19.70;99.90
35027;DHT22;60696;51.426;6.934;2023-05-08T16:18:07;19.50;99.90
35027;DHT22;60696;51.426;6.934;2023-05-08T16:20:33;19.40;99.90
35027;DHT22;60696;51.426;6.934;2023-05-08T16:22:58;19.40;99.90
35027;DHT22;60696;51.426;6.934;2023-05-08T16:25:24;19.40;99.90
35027;DHT22;60696;51.426;6.934;2023-05-08T16:27:50;19.40;99.90
35027;DHT22;60696;51.426;6.934;2023-05-08T16:30:16;19.30;99.90
35027;DHT22;60696;51.426;6.934;2023-05-08T16:32:42;19.20;99.90
35027;DHT22;60696;51.426;6.934;2023-05-08T16:35:11;19.20;99.90
35027;DHT22;60696;51.426;6.934;2023-05-08T16:37:37;19.20;99.90
35027;DHT22;60696;51.426;6.934;2023-05-08T16:40:02;19.30;99.90
35027;DHT22;60696;51.426;6.934;2023-05-08T16:42:28;19.30;99.90
35027;DHT22;60696;51.426;6.934;2023-05-08T16:44:54;19.10;99.90
35027;DHT22;60696;51.426;6.934;2023-05-08T16:47:19;19.10;99.90
35027;DHT22;60696;51.426;6.934;2023-05-08T16:49:45;19.10;99.90
35027;DHT22;60696;51.426;6.934;2023-05-08T16:52:10;19.10;99.90
35027;DHT22;60696;51.426;6.934;2023-05-08T16:54:36;19.10;99.90
35027;DHT22;60696;51.426;6.934;2023-05-08T16:57:02;19.10;99.90
35027;DHT22;60696;51.426;6.934;2023-05-08T16:59:27;19.00;99.90
35027;DHT22;60696;51.426;6.934;2023-05-08T17:01:53;19.00;99.90
35027;DHT22;60696;51.426;6.934;2023-05-08T17:04:19;18.90;99.90
35027;DHT22;60696;51.426;6.934;2023-05-08T17:06:44;18.80;99.90
35027;DHT22;60696;51.426;6.934;2023-05-08T17:09:10;18.80;99.90
35027;DHT22;60696;51.426;6.934;2023-05-08T17:11:36;18.70;99.90
35027;DHT22;60696;51.426;6.934;2023-05-08T17:14:01;18.50;99.90
35027;DHT22;60696;51.426;6.934;2023-05-08T17:16:27;18.60;99.90
35027;DHT22;60696;51.426;6.934;2023-05-08T17:18:52;18.60;99.90
35027;DHT22;60696;51.426;6.934;2023-05-08T17:21:18;18.50;99.90
35027;DHT22;60696;51.426;6.934;2023-05-08T17:23:44;18.40;99.90
35027;DHT22;60696;51.426;6.934;2023-05-08T17:26:10;18.30;99.90
35027;DHT22;60696;51.426;6.934;2023-05-08T17:28:36;18.40;99.90
35027;DHT22;60696;51.426;6.934;2023-05-08T17:31:01;18.30;99.90
35027;DHT22;60696;51.426;6.934;2023-05-08T17:33:27;18.30;99.90
35027;DHT22;60696;51.426;6.934;2023-05-08T17:35:53;18.30;99.90
35027;DHT22;60696;51.426;6.934;2023-05-08T17:38:19;18.20;99.90
35027;DHT22;60696;51.426;6.934;2023-05-08T17:40:45;18.20;99.90
35027;DHT22;60696;51.426;6.934;2023-05-08T17:43:11;18.30;99.90
35027;DHT22;60696;51.426;6.934;2023-05-08T17:45:37;18.40;99.90
35027;DHT22;60696;51.426;6.934;2023-05-08T17:48:03;18.40;99.90
35027;DHT22;60696;51.426;6.934;2023-05-08T17:50:29;18.50;99.90
35027;DHT22;60696;51.426;6.934;2023-05-08T17:52:54;18.60;99.90
35027;DHT22;60696;51.426;6.934;2023-05-08T17:55:20;18.60;99.90
35027;DHT22;60696;51.426;6.934;2023-05-08T17:57:46;18.60;99.90
35027;DHT22;60696;51.426;6.934;2023-05-08T18:00:12;18.40;99.90
35027;DHT22;60696;51.426;6.934;2023-05-08T18:02:38;18.40;99.90
35027;DHT22;60696;51.426;6.934;2023-05-08T18:05:03;18.30;99.90
35027;DHT22;60696;51.426;6.934;2023-05-08T18:07:29;18.30;99.90
35027;DHT22;60696;51.426;6.934;2023-05-08T18:09:55;18.30;99.90
35027;DHT22;60696;51.426;6.934;2023-05-08T18:12:20;18.40;99.90
35027;DHT22;60696;51.426;6.934;2023-05-08T18:14:46;18.40;99.90
35027;DHT22;60696;51.426;6.934;2023-05-08T18:17:12;18.40;99.90
35027;DHT22;60696;51.426;6.934;2023-05-08T18:19:41;18.40;99.90
35027;DHT22;60696;51.426;6.934;2023-05-08T18:22:06;18.40;99.90
35027;DHT22;60696;51.426;6.934;2023-05-08T18:24:32;18.50;99.90
35027;DHT22;60696;51.426;6.934;2023-05-08T18:26:58;18.50;99.90
35027;DHT22;60696;51.426;6.934;2023-05-08T18:29:23;18.50;99.90
35027;DHT22;60696;51.426;6.934;2023-05-08T18:31:50;18.40;99.90
35027;DHT22;60696;51.426;6.934;2023-05-08T18:34:15;18.40;99.90
35027;DHT22;60696;51.426;6.934;2023-05-08T18:36:41;18.40;99.90
35027;DHT22;60696;51.426;6.934;2023-05-08T18:39:06;18.30;99.90
35027;DHT22;60696;51.426;6.934;2023-05-08T18:41:32;18.30;99.90
35027;DHT22;60696;51.426;6.934;2023-05-08T18:43:58;18.20;99.90
35027;DHT22;60696;51.426;6.934;2023-05-08T18:46:27;18.20;99.90
35027;DHT22;60696;51.426;6.934;2023-05-08T18:48:53;18.20;99.90
35027;DHT22;60696;51.426;6.934;2023-05-08T18:51:18;18.10;99.90
35027;DHT22;60696;51.426;6.934;2023-05-08T18:53:44;18.00;99.90
35027;DHT22;60696;51.426;6.934;2023-05-08T18:56:09;18.00;99.90
35027;DHT22;60696;51.426;6.934;2023-05-08T18:58:36;17.90;99.90
35027;DHT22;60696;51.426;6.934;2023-05-08T19:01:02;17.90;99.90
35027;DHT22;60696;51.426;6.934;2023-05-08T19:03:30;17.90;99.90
35027;DHT22;60696;51.426;6.934;2023-05-08T19:05:56;17.90;99.90
35027;DHT22;60696;51.426;6.934;2023-05-08T19:08:21;17.80;99.90
35027;DHT22;60696;51.426;6.934;2023-05-08T19:10:47;17.80;99.90
35027;DHT22;60696;51.426;6.934;2023-05-08T19:13:13;17.70;99.90
35027;DHT22;60696;51.426;6.934;2023-05-08T19:15:39;17.70;99.90
35027;DHT22;60696;51.426;6.934;2023-05-08T19:18:04;17.60;99.90
35027;DHT22;60696;51.426;6.934;2023-05-08T19:20:30;17.50;99.90
35027;DHT22;60696;51.426;6.934;2023-05-08T19:22:59;17.40;99.90
35027;DHT22;60696;51.426;6.934;2023-05-08T19:25:24;17.40;99.90
35027;DHT22;60696;51.426;6.934;2023-05-08T19:27:50;17.40;99.90
35027;DHT22;60696;51.426;6.934;2023-05-08T19:30:16;17.30;99.90
35027;DHT22;60696;51.426;6.934;2023-05-08T19:32:41;17.30;99.90
35027;DHT22;60696;51.426;6.934;2023-05-08T19:35:07;17.30;99.90
35027;DHT22;60696;51.426;6.934;2023-05-08T19:37:34;17.20;99.90
35027;DHT22;60696;51.426;6.934;2023-05-08T19:39:59;17.20;99.90
35027;DHT22;60696;51.426;6.934;2023-05-08T19:42:25;17.20;99.90
35027;DHT22;60696;51.426;6.934;2023-05-08T19:44:51;17.10;99.90
35027;DHT22;60696;51.426;6.934;2023-05-08T19:47:16;17.10;99.90
35027;DHT22;60696;51.426;6.934;2023-05-08T19:49:42;17.10;99.90
35027;DHT22;60696;51.426;6.934;2023-05-08T19:52:08;17.10;99.90
35027;DHT22;60696;51.426;6.934;2023-05-08T19:54:34;17.00;99.90
35027;DHT22;60696;51.426;6.934;2023-05-08T19:56:59;17.00;99.90
35027;DHT22;60696;51.426;6.934;2023-05-08T19:59:26;17.00;99.90
35027;DHT22;60696;51.426;6.934;2023-05-08T20:01:52;16.90;99.90
35027;DHT22;60696;51.426;6.934;2023-05-08T20:04:18;16.90;99.90